createdAt,value
2022-08-21T00:02:31.033Z,101392.66
2022-08-21T00:07:53.431Z,101386.44
2022-08-21T00:13:18.739Z,101382.69
2022-08-21T00:18:40.753Z,101384.31
2022-08-21T00:24:03.035Z,101359.72
2022-08-21T00:29:25.484Z,101367.03
2022-08-21T00:34:47.474Z,101359.72
2022-08-21T00:40:13.522Z,101382.16
2022-08-21T00:45:36.487Z,101365.94
2022-08-21T00:51:13.533Z,101353.78
2022-08-21T00:56:35.745Z,101331.38
2022-08-21T01:01:57.812Z,101372.72
2022-08-21T01:07:21.514Z,101379.50
2022-08-21T01:12:45.324Z,101382.19
2022-08-21T01:18:09.785Z,101380.59
2022-08-21T01:23:31.894Z,101341.38
2022-08-21T01:29:01.361Z,101369.50
2022-08-21T01:34:23.162Z,101369.22
2022-08-21T01:39:46.676Z,101369.53
2022-08-21T01:45:09.664Z,101368.72
2022-08-21T01:50:32.214Z,101356.28
2022-08-21T01:55:54.015Z,101341.13
2022-08-21T02:01:16.621Z,101362.75
2022-08-21T02:06:39.595Z,101335.72
2022-08-21T02:12:02.116Z,101358.72
2022-08-21T02:17:24.245Z,101366.03
2022-08-21T02:22:46.554Z,101350.88
2022-08-21T02:28:12.307Z,101360.06
2022-08-21T02:33:35.217Z,101346.56
2022-08-21T02:38:57.645Z,101328.16
2022-08-21T02:44:20.067Z,101374.13
2022-08-21T02:49:41.675Z,101349.78
2022-08-21T02:55:03.715Z,101379.56
2022-08-21T03:00:29.785Z,101378.44
2022-08-21T03:05:53.064Z,101361.69
2022-08-21T03:11:16.425Z,101388.72
2022-08-21T03:16:38.476Z,101378.97
2022-08-21T03:22:00.795Z,101351.41
2022-08-21T03:27:28.152Z,101378.44
2022-08-21T03:32:52.455Z,101392.22
2022-08-21T03:38:14.675Z,101381.94
2022-08-21T03:43:37.750Z,101384.09
2022-08-21T03:48:59.734Z,101388.69
2022-08-21T03:54:21.955Z,101388.63
2022-08-21T03:59:44.834Z,101365.31
2022-08-21T04:05:09.311Z,101384.69
2022-08-21T04:10:33.766Z,101354.88
2022-08-21T04:15:57.066Z,101362.28
2022-08-21T04:21:18.741Z,101386.94
2022-08-21T04:26:46.345Z,101314.94
2022-08-21T04:32:08.364Z,101376.84
2022-08-21T04:37:30.554Z,101388.22
2022-08-21T04:43:07.396Z,101393.81
2022-08-21T04:48:32.474Z,101393.91
2022-08-21T04:53:59.095Z,101398.03
2022-08-21T04:59:36.981Z,101372.88
2022-08-21T05:05:01.066Z,101373.97
2022-08-21T05:10:24.115Z,101354.06
2022-08-21T05:15:46.523Z,101366.94
2022-08-21T05:21:08.367Z,101373.38
2022-08-21T05:26:31.245Z,101365.56
2022-08-21T05:31:54.013Z,101308.34
2022-08-21T05:37:16.164Z,101347.13
2022-08-21T05:42:38.358Z,101340.66
2022-08-21T05:48:11.918Z,101329.91
2022-08-21T05:53:34.184Z,101338.00
2022-08-21T05:58:57.121Z,101335.78
2022-08-21T06:04:19.681Z,101358.41
2022-08-21T06:09:42.436Z,101361.16
2022-08-21T06:15:04.681Z,101358.63
2022-08-21T06:20:27.017Z,101356.41
2022-08-21T06:25:48.642Z,101340.63
2022-08-21T06:31:19.546Z,101348.97
2022-08-21T06:36:41.304Z,101343.09
2022-08-21T06:42:03.807Z,101332.31
2022-08-21T06:47:26.062Z,101333.66
2022-08-21T06:52:48.447Z,101336.44
2022-08-21T06:58:11.502Z,101343.38
2022-08-21T07:03:37.212Z,101319.34
2022-08-21T07:08:59.297Z,101311.09
2022-08-21T07:14:22.435Z,101284.94
2022-08-21T07:19:47.634Z,101290.09
2022-08-21T07:25:10.568Z,101339.81
2022-08-21T07:30:33.642Z,101283.56
2022-08-21T07:35:56.628Z,101296.22
2022-08-21T07:41:22.875Z,101296.75
2022-08-21T07:46:44.917Z,101286.50
2022-08-21T07:52:07.617Z,101275.16
2022-08-21T07:57:30.627Z,101256.63
2022-08-21T08:02:55.772Z,101263.53
2022-08-21T08:08:18.607Z,101308.59
2022-08-21T08:13:49.930Z,101290.59
2022-08-21T08:19:11.887Z,101288.69
2022-08-21T08:24:39.687Z,101299.31
2022-08-21T08:30:01.877Z,101296.56
2022-08-21T08:35:26.623Z,101286.34
2022-08-21T08:41:22.746Z,101290.94
2022-08-21T08:46:51.942Z,101286.97
2022-08-21T08:52:32.562Z,101288.69
2022-08-21T08:57:56.547Z,101266.22
2022-08-21T09:03:19.047Z,101262.84
2022-08-21T09:08:51.169Z,101252.22
2022-08-21T09:14:42.507Z,101258.00
2022-08-21T09:20:37.011Z,101254.66
2022-08-21T09:26:08.588Z,101244.06
2022-08-21T09:31:37.731Z,101229.00
2022-08-21T09:37:00.480Z,101247.81
2022-08-21T09:42:30.690Z,101237.66
2022-08-21T09:47:53.067Z,101233.53
2022-08-21T09:53:25.650Z,101219.41
2022-08-21T09:58:50.326Z,101230.59
2022-08-21T10:04:12.707Z,101223.03
2022-08-21T10:09:35.427Z,101218.25
2022-08-21T10:15:23.249Z,101175.41
2022-08-21T10:20:54.826Z,101146.59
2022-08-21T10:26:39.086Z,101200.53
2022-08-21T10:32:25.905Z,101159.56
2022-08-21T10:38:33.469Z,101174.78
2022-08-21T10:44:23.651Z,101173.88
2022-08-21T10:50:03.171Z,101179.38
2022-08-21T10:55:35.734Z,101119.13
2022-08-21T11:01:12.536Z,101139.28
2022-08-21T11:07:17.172Z,101148.34
2022-08-21T11:12:48.066Z,101160.06
2022-08-21T11:18:24.080Z,101159.97
2022-08-21T11:23:56.155Z,101150.06
2022-08-21T11:29:25.167Z,101149.88
2022-08-21T11:35:09.183Z,101131.13
2022-08-21T11:40:55.270Z,101131.19
2022-08-21T11:46:30.182Z,101141.13
2022-08-21T11:52:16.814Z,101127.09
2022-08-21T11:57:48.754Z,101133.50
2022-08-21T12:03:19.435Z,101124.53
2022-08-21T12:08:45.670Z,101094.56
2022-08-21T12:14:10.810Z,101118.66
2022-08-21T12:19:34.047Z,101099.13
2022-08-21T12:25:10.592Z,101088.50
2022-08-21T12:30:41.426Z,101053.44
2022-08-21T12:36:20.162Z,101037.38
2022-08-21T12:41:51.223Z,101083.13
2022-08-21T12:47:33.327Z,101038.59
2022-08-21T12:53:20.333Z,101060.88
2022-08-21T12:59:11.610Z,101069.53
2022-08-21T13:04:43.334Z,101041.56
2022-08-21T13:10:19.895Z,101096.97
2022-08-21T13:15:47.719Z,101094.03
2022-08-21T13:21:16.016Z,101087.97
2022-08-21T13:26:38.015Z,101084.47
2022-08-21T13:32:03.447Z,101085.22
2022-08-21T13:37:28.156Z,101069.38
2022-08-21T13:42:50.555Z,101076.06
2022-08-21T13:48:12.427Z,101052.22
2022-08-21T13:53:47.214Z,101055.72
2022-08-21T13:59:09.148Z,101061.97
2022-08-21T14:04:40.492Z,101057.09
2022-08-21T14:10:13.748Z,101020.03
2022-08-21T14:15:39.959Z,100984.50
2022-08-21T14:21:18.017Z,101014.22
2022-08-21T14:26:52.068Z,101018.44
2022-08-21T14:32:33.027Z,100993.56
2022-08-21T14:37:55.914Z,100976.88
2022-08-21T14:43:27.945Z,100992.69
2022-08-21T14:49:12.457Z,101000.16
2022-08-21T14:54:43.117Z,100981.41
2022-08-21T15:00:17.917Z,101015.16
2022-08-21T15:05:40.107Z,101019.06
2022-08-21T15:11:12.002Z,101040.78
2022-08-21T15:16:37.805Z,101041.41
2022-08-21T15:21:59.841Z,101031.63
2022-08-21T15:27:23.497Z,101015.38
2022-08-21T15:32:45.537Z,101001.69
2022-08-21T15:38:07.627Z,101019.09
2022-08-21T15:43:59.502Z,101016.88
2022-08-21T15:49:21.427Z,101016.94
2022-08-21T15:54:43.785Z,101007.00
2022-08-21T16:00:16.326Z,101019.13
2022-08-21T16:05:38.077Z,101021.47
2022-08-21T16:11:02.016Z,100981.38
2022-08-21T16:16:25.756Z,101003.56
2022-08-21T16:21:48.400Z,100990.69
2022-08-21T16:27:11.081Z,100985.09
2022-08-21T16:32:33.174Z,100968.06
2022-08-21T16:37:55.766Z,101021.72
2022-08-21T16:43:18.674Z,101004.03
2022-08-21T16:48:42.646Z,101003.47
2022-08-21T16:54:05.045Z,101001.66
2022-08-21T16:59:27.710Z,101000.94
2022-08-21T17:04:50.208Z,101001.00
2022-08-21T17:10:14.641Z,101017.09
2022-08-21T17:15:38.159Z,101031.69
2022-08-21T17:20:59.936Z,101032.66
2022-08-21T17:26:21.712Z,101018.06
2022-08-21T17:31:45.123Z,101035.38
2022-08-21T17:37:09.557Z,101015.38
2022-08-21T17:42:31.394Z,100954.38
2022-08-21T17:47:53.980Z,100954.75
2022-08-21T17:53:15.704Z,101028.25
2022-08-21T17:58:38.231Z,101030.22
2022-08-21T18:04:00.076Z,101029.34
2022-08-21T18:09:23.732Z,100949.81
2022-08-21T18:14:45.840Z,100968.59
2022-08-21T18:20:08.793Z,100994.34
2022-08-21T18:25:31.725Z,101003.41
2022-08-21T18:30:55.482Z,100946.56
2022-08-21T18:36:17.521Z,100983.03
2022-08-21T18:41:39.966Z,100956.56
2022-08-21T18:47:08.127Z,101009.22
2022-08-21T18:52:31.314Z,101024.47
2022-08-21T18:57:56.117Z,100965.88
2022-08-21T19:03:23.930Z,101027.38
2022-08-21T19:08:46.246Z,101027.22
2022-08-21T19:14:15.823Z,101029.63
2022-08-21T19:19:39.331Z,101031.06
2022-08-21T19:25:01.718Z,101030.41
2022-08-21T19:30:24.234Z,101018.69
2022-08-21T19:35:47.454Z,101006.59
2022-08-21T19:41:17.205Z,101018.31
2022-08-21T19:46:42.417Z,101023.63
2022-08-21T19:52:13.005Z,100994.03
2022-08-21T19:57:46.756Z,101005.41
2022-08-21T20:03:09.503Z,101017.78
2022-08-21T20:08:32.144Z,100943.59
2022-08-21T20:13:55.137Z,100953.38
2022-08-21T20:19:20.398Z,101008.19
2022-08-21T20:24:43.135Z,100958.63
2022-08-21T20:30:07.003Z,100989.81
2022-08-21T20:35:29.495Z,100937.34
2022-08-21T20:40:53.295Z,100985.25
2022-08-21T20:46:25.534Z,100960.44
2022-08-21T20:51:52.845Z,100969.25
2022-08-21T20:57:35.113Z,101030.00
2022-08-21T21:03:17.321Z,100972.75
2022-08-21T21:08:49.635Z,100998.81
2022-08-21T21:14:25.344Z,101023.16
2022-08-21T21:19:53.766Z,101003.50
2022-08-21T21:25:40.098Z,101018.50
2022-08-21T21:31:03.901Z,101021.22
2022-08-21T21:36:43.982Z,101019.13
2022-08-21T21:42:30.105Z,100998.19
2022-08-21T21:48:23.264Z,101019.13
2022-08-21T21:54:09.695Z,100986.94
2022-08-21T21:59:51.974Z,101022.63
2022-08-21T22:05:38.087Z,100994.78
2022-08-21T22:11:24.079Z,101022.63
2022-08-21T22:16:50.355Z,101030.81
2022-08-21T22:22:25.942Z,101036.25
2022-08-21T22:27:53.526Z,101031.94
2022-08-21T22:33:25.281Z,101027.72
2022-08-21T22:38:50.845Z,101039.56
2022-08-21T22:50:34.356Z,101036.59
2022-08-21T22:55:59.206Z,101038.81
2022-08-21T23:01:20.986Z,101041.38
2022-08-21T23:06:46.650Z,101035.75
2022-08-21T23:12:33.217Z,101045.31
2022-08-21T23:18:25.992Z,101024.41
2022-08-21T23:30:08.784Z,101050.78
2022-08-21T23:35:51.827Z,101048.22
2022-08-21T23:41:34.285Z,101029.34
2022-08-21T23:46:56.475Z,101055.59
2022-08-21T23:52:49.925Z,101044.34
2022-08-21T23:58:38.405Z,101064.91
